createdAt,value
2022-08-03T00:02:18.623Z,2.63
2022-08-03T00:04:46.696Z,2.28
2022-08-03T00:07:14.609Z,2.67
2022-08-03T00:09:43.887Z,2.38
2022-08-03T00:12:11.829Z,2.33
2022-08-03T00:14:39.830Z,2.53
2022-08-03T00:17:07.919Z,2.20
2022-08-03T00:19:36.146Z,2.63
2022-08-03T00:22:04.159Z,2.25
2022-08-03T00:24:32.333Z,2.17
2022-08-03T00:27:01.619Z,2.20
2022-08-03T00:29:29.642Z,2.00
2022-08-03T00:31:59.431Z,2.10
2022-08-03T00:34:36.661Z,2.55
2022-08-03T00:37:16.623Z,2.20
2022-08-03T00:39:46.296Z,1.90
2022-08-03T00:42:16.103Z,2.30
2022-08-03T00:44:46.191Z,2.10
2022-08-03T00:47:14.156Z,1.83
2022-08-03T00:49:43.127Z,2.30
2022-08-03T00:52:12.146Z,2.30
2022-08-03T00:54:40.803Z,2.20
2022-08-03T00:57:09.363Z,2.17
2022-08-03T00:59:39.692Z,2.20
2022-08-03T01:02:07.632Z,2.45
2022-08-03T01:04:35.556Z,2.20
2022-08-03T01:07:12.411Z,2.65
2022-08-03T01:09:50.457Z,2.17
2022-08-03T01:12:31.129Z,2.50
2022-08-03T01:15:10.625Z,2.20
2022-08-03T01:17:50.511Z,2.55
2022-08-03T01:20:21.838Z,2.20
2022-08-03T01:23:14.991Z,2.50
2022-08-03T01:26:00.922Z,2.50
2022-08-03T01:28:43.228Z,2.95
2022-08-03T01:31:18.174Z,2.28
2022-08-03T01:33:54.129Z,2.08
2022-08-03T01:36:26.176Z,2.30
2022-08-03T01:38:57.291Z,2.53
2022-08-03T01:41:32.021Z,2.13
2022-08-03T01:44:29.826Z,2.50
2022-08-03T01:46:52.089Z,2.60
2022-08-03T01:49:21.409Z,2.05
2022-08-03T01:51:56.713Z,2.55
2022-08-03T01:54:32.254Z,2.63
2022-08-03T01:57:00.804Z,2.30
2022-08-03T01:59:31.568Z,2.30
2022-08-03T02:02:15.433Z,2.10
2022-08-03T02:04:51.559Z,2.05
2022-08-03T02:07:20.998Z,2.03
2022-08-03T02:09:53.539Z,2.13
2022-08-03T02:12:23.616Z,2.27
2022-08-03T02:14:52.601Z,2.08
2022-08-03T02:17:39.434Z,2.10
2022-08-03T02:20:09.803Z,2.10
2022-08-03T02:22:40.469Z,2.25
2022-08-03T02:25:09.666Z,1.80
2022-08-03T02:27:43.865Z,2.25
2022-08-03T02:30:14.319Z,2.17
2022-08-03T02:32:49.332Z,2.28
2022-08-03T02:35:19.634Z,2.10
2022-08-03T02:37:52.943Z,2.42
2022-08-03T02:42:54.488Z,2.58
2022-08-03T02:45:25.437Z,2.75
2022-08-03T02:47:59.162Z,2.20
2022-08-03T02:50:28.546Z,2.50
2022-08-03T02:52:58.731Z,2.42
2022-08-03T02:55:27.842Z,2.97
2022-08-03T02:58:01.656Z,2.85
2022-08-03T03:00:30.713Z,2.70
2022-08-03T03:03:02.629Z,2.47
2022-08-03T03:05:56.116Z,2.50
2022-08-03T03:08:27.439Z,2.42
2022-08-03T03:10:59.161Z,2.20
2022-08-03T03:13:29.586Z,2.03
2022-08-03T03:16:00.839Z,2.10
2022-08-03T03:18:32.119Z,2.40
2022-08-03T03:21:01.977Z,2.15
2022-08-03T03:23:31.700Z,2.42
2022-08-03T03:26:02.415Z,2.30
2022-08-03T03:28:31.835Z,1.90
2022-08-03T03:31:00.378Z,2.05
2022-08-03T03:33:28.771Z,2.53
2022-08-03T03:35:59.656Z,1.95
2022-08-03T03:38:28.014Z,2.00
2022-08-03T03:40:56.762Z,2.40
2022-08-03T03:43:25.784Z,2.60
2022-08-03T03:45:54.049Z,2.40
2022-08-03T03:48:22.239Z,2.20
2022-08-03T03:50:50.926Z,2.78
2022-08-03T03:53:20.601Z,2.53
2022-08-03T03:55:57.939Z,2.30
2022-08-03T03:58:32.067Z,2.78
2022-08-03T04:01:00.266Z,2.38
2022-08-03T04:03:28.372Z,2.38
2022-08-03T04:06:13.740Z,2.58
2022-08-03T04:09:00.521Z,2.65
2022-08-03T04:11:33.244Z,2.38
2022-08-03T04:14:06.214Z,2.33
2022-08-03T04:16:41.904Z,2.90
2022-08-03T04:19:17.501Z,2.72
2022-08-03T04:21:53.888Z,2.40
2022-08-03T04:24:30.988Z,2.80
2022-08-03T04:27:01.973Z,2.70
2022-08-03T04:29:34.260Z,2.70
2022-08-03T04:32:03.278Z,2.22
2022-08-03T04:34:31.840Z,2.50
2022-08-03T04:37:02.992Z,2.67
2022-08-03T04:39:33.906Z,2.80
2022-08-03T04:42:07.993Z,2.92
2022-08-03T04:44:38.701Z,2.35
2022-08-03T04:47:06.964Z,2.40
2022-08-03T04:49:37.665Z,2.60
2022-08-03T04:52:06.591Z,2.58
2022-08-03T04:54:42.467Z,2.25
2022-08-03T04:57:11.549Z,2.63
2022-08-03T04:59:58.183Z,2.90
2022-08-03T05:02:31.039Z,2.30
2022-08-03T05:04:59.099Z,2.47
2022-08-03T05:07:35.473Z,2.53
2022-08-03T05:10:14.904Z,2.78
2022-08-03T05:12:44.727Z,3.28
2022-08-03T05:15:12.964Z,2.60
2022-08-03T05:17:41.117Z,2.22
2022-08-03T05:20:10.377Z,2.60
2022-08-03T05:22:38.318Z,2.00
2022-08-03T05:25:08.536Z,1.92
2022-08-03T05:27:36.483Z,2.00
2022-08-03T05:30:31.684Z,2.13
2022-08-03T05:32:53.494Z,2.20
2022-08-03T05:35:55.962Z,2.38
2022-08-03T05:38:09.420Z,2.70
2022-08-03T05:40:38.731Z,2.38
2022-08-03T05:43:14.873Z,2.22
2022-08-03T05:45:44.072Z,3.35
2022-08-03T05:48:11.989Z,2.45
2022-08-03T05:50:42.766Z,2.47
2022-08-03T05:53:10.905Z,2.50
2022-08-03T05:55:40.204Z,2.53
2022-08-03T05:58:08.129Z,3.20
2022-08-03T06:00:39.441Z,2.58
2022-08-03T06:03:07.417Z,2.38
2022-08-03T06:05:36.597Z,2.28
2022-08-03T06:08:11.449Z,2.33
2022-08-03T06:10:44.807Z,2.38
2022-08-03T06:13:12.748Z,2.38
2022-08-03T06:15:40.698Z,2.38
2022-08-03T06:18:08.993Z,2.10
2022-08-03T06:20:36.925Z,1.73
2022-08-03T06:23:05.635Z,2.15
2022-08-03T06:25:35.508Z,1.92
2022-08-03T06:28:07.633Z,1.63
2022-08-03T06:30:37.490Z,2.30
2022-08-03T06:33:05.509Z,1.58
2022-08-03T06:35:36.389Z,1.75
2022-08-03T06:38:05.090Z,1.58
2022-08-03T06:40:39.867Z,1.60
2022-08-03T06:43:12.646Z,2.17
2022-08-03T06:45:40.878Z,1.48
2022-08-03T06:48:10.956Z,2.10
2022-08-03T06:50:41.514Z,1.40
2022-08-03T06:53:15.634Z,1.75
2022-08-03T06:55:54.257Z,1.60
2022-08-03T06:58:24.212Z,1.92
2022-08-03T07:00:52.172Z,1.60
2022-08-03T07:03:20.786Z,1.98
2022-08-03T07:05:49.157Z,1.70
2022-08-03T07:08:17.074Z,1.63
2022-08-03T07:11:01.179Z,1.60
2022-08-03T07:13:30.702Z,1.35
2022-08-03T07:15:58.620Z,1.92
2022-08-03T07:18:29.586Z,1.50
2022-08-03T07:20:58.092Z,1.50
2022-08-03T07:23:26.503Z,1.40
2022-08-03T07:25:54.381Z,1.70
2022-08-03T07:28:22.363Z,1.40
2022-08-03T07:30:51.926Z,1.65
2022-08-03T07:33:19.820Z,1.35
2022-08-03T07:35:47.835Z,2.08
2022-08-03T07:38:16.311Z,1.50
2022-08-03T07:40:46.278Z,1.95
2022-08-03T07:43:14.600Z,1.50
2022-08-03T07:45:42.517Z,1.23
2022-08-03T07:48:12.682Z,1.40
2022-08-03T07:50:40.721Z,1.90
2022-08-03T07:53:08.882Z,1.40
2022-08-03T07:55:36.873Z,1.75
2022-08-03T07:58:07.599Z,1.40
2022-08-03T08:00:35.533Z,1.25
2022-08-03T08:03:04.071Z,1.63
2022-08-03T08:05:33.886Z,1.35
2022-08-03T08:08:02.209Z,1.38
2022-08-03T08:10:30.866Z,1.70
2022-08-03T08:12:58.848Z,1.63
2022-08-03T08:15:26.972Z,1.27
2022-08-03T08:17:56.365Z,1.40
2022-08-03T08:20:30.475Z,1.73
2022-08-03T08:23:02.067Z,1.42
2022-08-03T08:25:32.549Z,1.50
2022-08-03T08:28:22.362Z,1.00
2022-08-03T08:30:51.930Z,1.30
2022-08-03T08:33:23.199Z,1.65
2022-08-03T08:35:53.058Z,1.70
2022-08-03T08:38:23.105Z,1.40
2022-08-03T08:40:51.916Z,1.40
2022-08-03T08:43:19.978Z,1.27
2022-08-03T08:45:50.066Z,1.38
2022-08-03T08:48:22.728Z,0.98
2022-08-03T08:50:54.140Z,1.48
2022-08-03T08:53:27.267Z,1.20
2022-08-03T08:55:59.068Z,1.20
2022-08-03T08:58:31.299Z,1.42
2022-08-03T09:00:59.823Z,1.10
2022-08-03T09:03:30.241Z,1.45
2022-08-03T09:06:02.196Z,1.63
2022-08-03T09:08:33.200Z,1.35
2022-08-03T09:11:01.478Z,1.40
2022-08-03T09:13:30.557Z,1.33
2022-08-03T09:16:15.440Z,2.38
2022-08-03T09:18:44.744Z,1.27
2022-08-03T09:21:34.241Z,1.40
2022-08-03T09:24:10.302Z,1.20
2022-08-03T09:26:52.191Z,1.58
2022-08-03T09:29:22.322Z,1.13
2022-08-03T09:31:50.344Z,1.48
2022-08-03T09:34:19.582Z,1.50
2022-08-03T09:36:48.577Z,1.75
2022-08-03T09:39:40.961Z,2.33
2022-08-03T09:42:11.165Z,1.80
2022-08-03T09:44:45.226Z,1.58
2022-08-03T09:47:17.387Z,1.27
2022-08-03T09:49:58.438Z,1.57
2022-08-03T09:52:38.867Z,1.13
2022-08-03T09:56:21.161Z,1.23
2022-08-03T09:58:07.122Z,1.50
2022-08-03T10:00:55.004Z,1.67
2022-08-03T10:03:23.707Z,1.40
2022-08-03T10:05:54.822Z,1.20
2022-08-03T10:08:24.603Z,1.00
2022-08-03T10:10:55.091Z,1.38
2022-08-03T10:13:24.286Z,1.40
2022-08-03T10:16:21.662Z,1.50
2022-08-03T10:18:40.209Z,1.30
2022-08-03T10:21:11.430Z,1.40
2022-08-03T10:23:42.166Z,1.17
2022-08-03T10:26:17.328Z,1.33
2022-08-03T10:28:51.232Z,1.48
2022-08-03T10:31:21.643Z,1.25
2022-08-03T10:33:53.452Z,1.17
2022-08-03T10:36:25.293Z,1.10
2022-08-03T10:38:54.365Z,1.23
2022-08-03T10:41:27.098Z,1.13
2022-08-03T10:44:04.140Z,1.30
2022-08-03T10:46:34.477Z,1.27
2022-08-03T10:49:03.398Z,1.38
2022-08-03T10:51:33.031Z,1.48
2022-08-03T10:54:01.858Z,1.02
2022-08-03T10:57:09.518Z,1.20
2022-08-03T11:00:00.475Z,0.98
2022-08-03T11:03:02.212Z,1.27
2022-08-03T11:05:31.367Z,1.40
2022-08-03T11:08:25.539Z,1.33
2022-08-03T11:10:55.912Z,1.50
2022-08-03T11:13:26.504Z,1.33
2022-08-03T11:15:59.672Z,1.30
2022-08-03T11:18:29.985Z,2.10
2022-08-03T11:20:59.044Z,1.73
2022-08-03T11:24:04.129Z,1.70
2022-08-03T11:26:34.641Z,1.70
2022-08-03T11:29:32.203Z,1.00
2022-08-03T11:32:00.226Z,1.88
2022-08-03T11:34:28.218Z,1.65
2022-08-03T11:37:22.968Z,1.00
2022-08-03T11:39:54.552Z,1.23
2022-08-03T11:42:48.283Z,1.17
2022-08-03T11:45:19.828Z,1.52
2022-08-03T11:47:50.825Z,1.60
2022-08-03T11:50:20.193Z,1.35
2022-08-03T11:52:49.782Z,1.70
2022-08-03T11:55:20.486Z,1.63
2022-08-03T11:59:17.242Z,3.05
2022-08-03T12:00:40.283Z,1.10
2022-08-03T12:03:11.150Z,1.15
2022-08-03T12:05:42.165Z,1.42
2022-08-03T12:08:29.898Z,1.35
2022-08-03T12:11:00.059Z,1.48
2022-08-03T12:14:43.764Z,1.33
2022-08-03T12:16:26.517Z,1.40
2022-08-03T12:18:58.731Z,1.40
2022-08-03T12:21:26.801Z,1.25
2022-08-03T12:24:00.018Z,1.10
2022-08-03T12:26:29.258Z,1.48
2022-08-03T12:28:57.406Z,1.55
2022-08-03T12:31:26.911Z,1.40
2022-08-03T12:34:02.013Z,1.30
2022-08-03T12:36:31.088Z,1.38
2022-08-03T12:39:00.811Z,1.10
2022-08-03T12:41:30.582Z,1.23
2022-08-03T12:43:58.791Z,1.40
2022-08-03T12:46:33.571Z,1.20
2022-08-03T12:49:08.052Z,1.00
2022-08-03T12:51:38.048Z,1.10
2022-08-03T12:54:07.143Z,1.50
2022-08-03T12:56:35.643Z,1.17
2022-08-03T12:59:32.331Z,1.60
2022-08-03T13:02:09.664Z,1.50
2022-08-03T13:04:38.125Z,1.30
2022-08-03T13:07:12.896Z,3.83
2022-08-03T13:09:44.307Z,1.60
2022-08-03T13:12:14.467Z,1.55
2022-08-03T13:14:43.130Z,1.40
2022-08-03T13:17:13.384Z,2.40
2022-08-03T13:19:42.087Z,1.25
2022-08-03T13:22:15.190Z,1.10
2022-08-03T13:24:44.581Z,1.60
2022-08-03T13:28:01.991Z,1.20
2022-08-03T13:30:02.175Z,1.30
2022-08-03T13:32:31.723Z,1.23
2022-08-03T13:35:00.063Z,1.20
2022-08-03T13:37:28.121Z,1.52
2022-08-03T13:39:59.346Z,1.42
2022-08-03T13:42:30.646Z,1.52
2022-08-03T13:44:58.992Z,1.17
2022-08-03T13:47:27.227Z,1.48
2022-08-03T13:50:00.910Z,4.20
2022-08-03T13:52:31.739Z,3.60
2022-08-03T13:55:00.153Z,3.75
2022-08-03T13:58:02.554Z,1.35
2022-08-03T14:00:27.059Z,1.40
2022-08-03T14:03:14.873Z,1.40
2022-08-03T14:05:45.244Z,2.65
2022-08-03T14:08:13.910Z,1.88
2022-08-03T14:10:44.015Z,1.35
2022-08-03T14:13:12.906Z,1.75
2022-08-03T14:15:51.203Z,5.45
2022-08-03T14:18:28.248Z,2.35
2022-08-03T14:21:06.312Z,1.77
2022-08-03T14:23:36.161Z,1.23
2022-08-03T14:26:04.482Z,1.40
2022-08-03T14:28:32.701Z,1.42
2022-08-03T14:31:01.015Z,1.30
2022-08-03T14:33:29.395Z,1.48
2022-08-03T14:35:57.582Z,1.50
2022-08-03T14:38:27.068Z,1.40
2022-08-03T14:40:55.208Z,1.30
2022-08-03T14:43:23.158Z,6.22
2022-08-03T14:45:53.553Z,11.73
2022-08-03T14:50:28.837Z,4.43
2022-08-03T14:51:10.407Z,1.70
2022-08-03T14:53:39.767Z,1.20
2022-08-03T14:56:10.396Z,1.50
2022-08-03T14:58:39.089Z,1.27
2022-08-03T15:02:02.365Z,1.30
2022-08-03T15:03:55.930Z,1.15
2022-08-03T15:06:23.868Z,1.35
2022-08-03T15:09:13.752Z,1.23
2022-08-03T15:11:41.556Z,1.40
2022-08-03T15:14:09.756Z,1.20
2022-08-03T15:16:38.352Z,1.15
2022-08-03T15:20:01.364Z,1.50
2022-08-03T15:21:55.089Z,1.42
2022-08-03T15:24:24.413Z,1.20
2022-08-03T15:26:53.125Z,1.48
2022-08-03T15:30:07.257Z,1.67
2022-08-03T15:32:09.708Z,1.20
2022-08-03T15:34:37.833Z,1.30
2022-08-03T15:37:16.418Z,1.27
2022-08-03T15:39:59.558Z,1.30
2022-08-03T15:42:29.875Z,1.63
2022-08-03T15:44:58.080Z,1.17
2022-08-03T15:47:26.122Z,1.33
2022-08-03T15:49:54.030Z,1.35
2022-08-03T15:52:21.985Z,1.40
2022-08-03T15:54:51.409Z,1.50
2022-08-03T15:57:19.425Z,1.35
2022-08-03T15:59:47.642Z,1.33
2022-08-03T16:02:16.088Z,1.35
2022-08-03T16:04:43.972Z,1.85
2022-08-03T16:07:12.658Z,1.55
2022-08-03T16:09:45.788Z,1.30
2022-08-03T16:12:16.786Z,1.25
2022-08-03T16:14:53.751Z,1.08
2022-08-03T16:17:23.551Z,1.38
2022-08-03T16:19:52.299Z,1.25
2022-08-03T16:22:23.774Z,1.50
2022-08-03T16:24:51.992Z,2.22
2022-08-03T16:27:56.653Z,5.25
2022-08-03T16:30:12.757Z,2.10
2022-08-03T16:32:40.776Z,1.98
2022-08-03T16:35:09.481Z,2.25
2022-08-03T16:37:50.674Z,1.55
2022-08-03T16:40:25.879Z,1.35
2022-08-03T16:42:55.489Z,1.70
2022-08-03T16:45:23.720Z,1.40
2022-08-03T16:48:01.650Z,2.83
2022-08-03T16:50:34.176Z,1.60
2022-08-03T16:53:03.553Z,5.93
2022-08-03T16:55:53.960Z,1.90
2022-08-03T16:58:24.302Z,3.05
2022-08-03T17:01:10.879Z,1.67
2022-08-03T17:04:01.438Z,2.10
2022-08-03T17:06:33.867Z,1.40
2022-08-03T17:09:03.934Z,1.48
2022-08-03T17:11:38.307Z,1.42
2022-08-03T17:14:14.661Z,1.30
2022-08-03T17:16:52.477Z,1.63
2022-08-03T17:19:27.509Z,2.17
2022-08-03T17:22:04.345Z,2.80
2022-08-03T17:24:34.775Z,3.65
2022-08-03T17:27:08.547Z,9.77
2022-08-03T17:29:45.359Z,3.25
2022-08-03T17:32:18.321Z,2.40
2022-08-03T17:34:50.285Z,1.98
2022-08-03T17:37:50.114Z,3.00
2022-08-03T17:40:12.524Z,1.90
2022-08-03T17:42:50.818Z,2.15
2022-08-03T17:45:21.323Z,2.03
2022-08-03T17:47:57.500Z,2.03
2022-08-03T17:50:35.543Z,2.30
2022-08-03T17:53:15.283Z,2.22
2022-08-03T17:56:04.807Z,1.80
2022-08-03T17:58:43.591Z,2.25
2022-08-03T18:02:02.089Z,2.10
2022-08-03T18:04:29.999Z,2.00
2022-08-03T18:07:00.116Z,2.50
2022-08-03T18:10:05.755Z,2.40
2022-08-03T18:12:27.029Z,1.80
2022-08-03T18:15:01.583Z,1.98
2022-08-03T18:17:55.836Z,2.20
2022-08-03T18:20:34.747Z,2.28
2022-08-03T18:23:10.375Z,2.00
2022-08-03T18:25:44.397Z,2.03
2022-08-03T18:28:15.407Z,1.88
2022-08-03T18:30:54.438Z,1.77
2022-08-03T18:34:17.831Z,1.85
2022-08-03T18:39:06.416Z,2.72
2022-08-03T18:41:35.863Z,2.20
2022-08-03T18:44:08.130Z,2.20
2022-08-03T18:46:51.732Z,1.92
2022-08-03T18:52:12.172Z,2.58
2022-08-03T18:55:02.345Z,1.85
2022-08-03T18:57:46.525Z,2.28
2022-08-03T19:00:17.341Z,2.00
2022-08-03T19:02:58.765Z,2.20
2022-08-03T19:05:49.344Z,2.70
2022-08-03T19:08:29.847Z,2.78
2022-08-03T19:11:06.210Z,3.72
2022-08-03T19:13:50.470Z,3.08
2022-08-03T19:16:28.415Z,2.65
2022-08-03T19:19:00.204Z,2.70
2022-08-03T19:21:30.584Z,3.67
2022-08-03T19:24:01.404Z,2.97
2022-08-03T19:26:30.831Z,3.95
2022-08-03T19:29:00.064Z,3.78
2022-08-03T19:31:30.733Z,3.65
2022-08-03T19:34:01.191Z,3.47
2022-08-03T19:36:31.387Z,3.22
2022-08-03T19:38:59.582Z,2.90
2022-08-03T19:41:41.875Z,3.20
2022-08-03T19:44:12.519Z,3.10
2022-08-03T19:46:54.074Z,3.42
2022-08-03T19:49:57.094Z,3.22
2022-08-03T19:52:20.914Z,3.25
2022-08-03T19:54:54.669Z,3.30
2022-08-03T19:57:25.618Z,2.95
2022-08-03T19:59:55.895Z,2.90
2022-08-03T20:02:26.052Z,3.28
2022-08-03T20:04:56.389Z,3.15
2022-08-03T20:07:26.575Z,2.95
2022-08-03T20:09:56.718Z,2.95
2022-08-03T20:12:27.515Z,3.13
2022-08-03T20:14:57.029Z,3.15
2022-08-03T20:17:54.701Z,3.28
2022-08-03T20:20:13.764Z,3.03
2022-08-03T20:22:51.342Z,3.35
2022-08-03T20:25:25.385Z,2.90
2022-08-03T20:28:14.235Z,3.13
2022-08-03T20:30:44.481Z,3.15
2022-08-03T20:33:18.818Z,3.63
2022-08-03T20:35:49.073Z,3.08
2022-08-03T20:38:19.979Z,3.17
2022-08-03T20:40:56.304Z,4.03
2022-08-03T20:43:27.484Z,3.70
2022-08-03T20:46:00.027Z,4.05
2022-08-03T20:48:48.589Z,3.95
2022-08-03T20:51:19.961Z,3.65
2022-08-03T20:54:29.389Z,4.55
2022-08-03T20:56:55.352Z,3.80
2022-08-03T20:59:28.802Z,4.13
2022-08-03T21:01:58.442Z,3.53
2022-08-03T21:04:26.379Z,4.38
2022-08-03T21:07:00.638Z,4.10
2022-08-03T21:09:49.720Z,4.53
2022-08-03T21:12:28.925Z,4.40
2022-08-03T21:12:58.650Z,1.98
2022-08-03T21:15:02.659Z,3.90
2022-08-03T21:17:41.409Z,4.13
2022-08-03T21:20:11.456Z,4.07
2022-08-03T21:22:43.431Z,3.42
2022-08-03T21:25:15.811Z,3.83
2022-08-03T21:27:44.406Z,4.10
2022-08-03T21:30:13.011Z,4.50
2022-08-03T21:32:45.341Z,4.70
2022-08-03T21:35:14.448Z,4.07
2022-08-03T21:37:44.196Z,4.95
2022-08-03T21:40:15.330Z,5.18
2022-08-03T21:42:45.353Z,4.60
2022-08-03T21:45:17.418Z,4.50
2022-08-03T21:47:46.887Z,4.47
2022-08-03T21:50:14.996Z,4.70
2022-08-03T21:52:44.855Z,4.70
2022-08-03T21:55:18.576Z,4.60
2022-08-03T21:57:53.395Z,4.70
2022-08-03T22:00:23.996Z,5.03
2022-08-03T22:02:55.402Z,4.85
2022-08-03T22:05:42.608Z,4.43
2022-08-03T22:08:13.585Z,4.30
2022-08-03T22:10:44.783Z,4.80
2022-08-03T22:13:13.192Z,5.45
2022-08-03T22:15:41.811Z,5.18
2022-08-03T22:18:10.716Z,5.05
2022-08-03T22:20:38.924Z,5.70
2022-08-03T22:23:08.343Z,5.38
2022-08-03T22:25:39.431Z,6.15
2022-08-03T22:28:12.284Z,5.40
2022-08-03T22:30:42.504Z,4.97
2022-08-03T22:33:12.699Z,5.90
2022-08-03T22:35:47.282Z,5.47
2022-08-03T22:38:17.378Z,5.60
2022-08-03T22:40:48.013Z,5.07
2022-08-03T22:43:17.501Z,4.90
2022-08-03T22:46:10.138Z,5.60
2022-08-03T22:48:40.653Z,5.60
2022-08-03T22:51:09.828Z,5.63
2022-08-03T22:53:37.920Z,5.45
2022-08-03T22:56:06.161Z,5.95
2022-08-03T22:58:35.515Z,6.00
2022-08-03T23:01:06.924Z,5.53
2022-08-03T23:03:59.902Z,5.53
2022-08-03T23:06:28.081Z,5.32
2022-08-03T23:08:57.050Z,5.63
2022-08-03T23:11:25.424Z,5.97
2022-08-03T23:13:57.621Z,6.10
2022-08-03T23:16:28.633Z,5.70
2022-08-03T23:19:00.290Z,5.82
2022-08-03T23:21:53.147Z,5.40
2022-08-03T23:24:30.487Z,5.75
2022-08-03T23:26:59.330Z,6.10
2022-08-03T23:29:31.459Z,5.60
2022-08-03T23:32:00.405Z,5.57
2022-08-03T23:34:46.937Z,5.57
2022-08-03T23:37:16.045Z,5.85
2022-08-03T23:39:46.066Z,5.28
2022-08-03T23:42:16.269Z,6.18
2022-08-03T23:44:46.200Z,6.07
2022-08-03T23:47:15.067Z,6.10
2022-08-03T23:49:43.090Z,5.15
2022-08-03T23:52:19.488Z,5.50
2022-08-03T23:55:02.175Z,5.05
2022-08-03T23:57:38.457Z,5.40
